KCRE

Grand Strand Airport

North Myrtle Beach, South Carolina, USA
METAR KCRE 221653Z 18008KT 10SM CLR 26/22 A3016 RMK AO1 SLP213 T02610222
Observed Flight Rules
May-22 @ 16:53 UTC (57 minutes ago) Visual Flight Rules
Wind Visibility Clouds
180° at 8 knots 10 miles
  • Clear skies
Temperatures Readings
Current 26°C / 79°F
Dewpoint 22°C / 72°F
Humidity 79%
Altimeter 30.16" Hg
Pressure 1021.3 hPa
Elevation 10
METAR KCRE 221653Z 18008KT 10SM CLR 26/22 A3016 RMK AO1 SLP213 T02610222
Observed Flight Rules
May-22 @ 16:53 UTC
(57 minutes ago)
VFR
Wind Visibility
180° at 8 knots 10 miles
Clouds
  • Clear skies
Temperature Dewpoint
26°C / 79°F 22°C / 72°F
Humidity Altimeter Pressure
79% 30.16" Hg 1021.3 hPa